sensor_id;sensor_type;location;lat;lon;timestamp;P1;durP1;ratioP1;P2;durP2;ratioP2
28311;SDS011;15572;48.810;9.148;2023-05-10T00:01:38;1.63;;;1.50;;
28311;SDS011;15572;48.810;9.148;2023-05-10T00:06:35;3.53;;;1.40;;
28311;SDS011;15572;48.810;9.148;2023-05-10T00:11:33;0.80;;;0.80;;
28311;SDS011;15572;48.810;9.148;2023-05-10T00:16:29;0.77;;;0.70;;
28311;SDS011;15572;48.810;9.148;2023-05-10T00:21:26;0.50;;;0.50;;
28311;SDS011;15572;48.810;9.148;2023-05-10T00:26:23;0.60;;;0.50;;
28311;SDS011;15572;48.810;9.148;2023-05-10T00:31:21;0.40;;;0.40;;
28311;SDS011;15572;48.810;9.148;2023-05-10T00:36:17;0.30;;;0.30;;
28311;SDS011;15572;48.810;9.148;2023-05-10T00:41:14;1.60;;;0.47;;
28311;SDS011;15572;48.810;9.148;2023-05-10T00:46:10;0.40;;;0.40;;
28311;SDS011;15572;48.810;9.148;2023-05-10T00:51:08;1.50;;;0.50;;
28311;SDS011;15572;48.810;9.148;2023-05-10T00:56:05;2.40;;;0.40;;
28311;SDS011;15572;48.810;9.148;2023-05-10T01:01:02;0.40;;;0.40;;
28311;SDS011;15572;48.810;9.148;2023-05-10T01:05:58;0.40;;;0.40;;
28311;SDS011;15572;48.810;9.148;2023-05-10T01:10:56;0.60;;;0.57;;
28311;SDS011;15572;48.810;9.148;2023-05-10T01:15:53;0.80;;;0.50;;
28311;SDS011;15572;48.810;9.148;2023-05-10T01:21:02;0.83;;;0.47;;
28311;SDS011;15572;48.810;9.148;2023-05-10T01:26:14;0.50;;;0.50;;
28311;SDS011;15572;48.810;9.148;2023-05-10T01:31:22;1.27;;;0.60;;
28311;SDS011;15572;48.810;9.148;2023-05-10T01:36:31;0.97;;;0.80;;
28311;SDS011;15572;48.810;9.148;2023-05-10T01:41:33;0.70;;;0.70;;
28311;SDS011;15572;48.810;9.148;2023-05-10T01:46:36;0.70;;;0.70;;
28311;SDS011;15572;48.810;9.148;2023-05-10T01:51:38;2.97;;;0.80;;
28311;SDS011;15572;48.810;9.148;2023-05-10T01:56:37;0.70;;;0.70;;
28311;SDS011;15572;48.810;9.148;2023-05-10T02:01:36;1.30;;;0.80;;
28311;SDS011;15572;48.810;9.148;2023-05-10T02:06:34;2.43;;;0.70;;
28311;SDS011;15572;48.810;9.148;2023-05-10T02:11:35;0.90;;;0.70;;
28311;SDS011;15572;48.810;9.148;2023-05-10T02:16:34;0.83;;;0.83;;
28311;SDS011;15572;48.810;9.148;2023-05-10T02:21:32;1.13;;;1.00;;
28311;SDS011;15572;48.810;9.148;2023-05-10T02:26:30;1.57;;;0.90;;
28311;SDS011;15572;48.810;9.148;2023-05-10T02:31:30;1.10;;;1.00;;
28311;SDS011;15572;48.810;9.148;2023-05-10T02:36:27;0.80;;;0.80;;
28311;SDS011;15572;48.810;9.148;2023-05-10T02:41:25;1.03;;;0.70;;
28311;SDS011;15572;48.810;9.148;2023-05-10T02:46:23;0.80;;;0.80;;
28311;SDS011;15572;48.810;9.148;2023-05-10T02:51:21;1.97;;;1.20;;
28311;SDS011;15572;48.810;9.148;2023-05-10T02:56:23;0.80;;;0.80;;
28311;SDS011;15572;48.810;9.148;2023-05-10T03:01:21;0.73;;;0.73;;
28311;SDS011;15572;48.810;9.148;2023-05-10T03:06:18;2.33;;;0.80;;
28311;SDS011;15572;48.810;9.148;2023-05-10T03:11:24;0.80;;;0.80;;
28311;SDS011;15572;48.810;9.148;2023-05-10T03:16:29;3.87;;;0.90;;
28311;SDS011;15572;48.810;9.148;2023-05-10T03:21:32;0.80;;;0.80;;
28311;SDS011;15572;48.810;9.148;2023-05-10T03:26:31;3.47;;;0.97;;
28311;SDS011;15572;48.810;9.148;2023-05-10T03:31:28;1.20;;;1.10;;
28311;SDS011;15572;48.810;9.148;2023-05-10T03:36:25;1.63;;;1.10;;
28311;SDS011;15572;48.810;9.148;2023-05-10T03:41:21;2.47;;;1.17;;
28311;SDS011;15572;48.810;9.148;2023-05-10T03:46:19;2.13;;;1.40;;
28311;SDS011;15572;48.810;9.148;2023-05-10T03:51:16;2.50;;;1.47;;
28311;SDS011;15572;48.810;9.148;2023-05-10T03:56:12;1.60;;;1.27;;
28311;SDS011;15572;48.810;9.148;2023-05-10T04:01:09;2.00;;;1.30;;
28311;SDS011;15572;48.810;9.148;2023-05-10T04:06:06;2.00;;;1.30;;
28311;SDS011;15572;48.810;9.148;2023-05-10T04:11:06;1.13;;;1.13;;
28311;SDS011;15572;48.810;9.148;2023-05-10T04:16:03;4.50;;;1.50;;
28311;SDS011;15572;48.810;9.148;2023-05-10T04:21:00;2.60;;;2.23;;
28311;SDS011;15572;48.810;9.148;2023-05-10T04:26:01;3.53;;;1.70;;
28311;SDS011;15572;48.810;9.148;2023-05-10T04:31:02;3.57;;;1.60;;
28311;SDS011;15572;48.810;9.148;2023-05-10T04:35:59;1.50;;;1.40;;
28311;SDS011;15572;48.810;9.148;2023-05-10T04:41:04;1.43;;;1.33;;
28311;SDS011;15572;48.810;9.148;2023-05-10T04:46:01;2.13;;;1.33;;
28311;SDS011;15572;48.810;9.148;2023-05-10T04:50:58;1.20;;;1.10;;
28311;SDS011;15572;48.810;9.148;2023-05-10T04:55:54;1.23;;;1.13;;
28311;SDS011;15572;48.810;9.148;2023-05-10T05:00:52;1.97;;;1.10;;
28311;SDS011;15572;48.810;9.148;2023-05-10T05:05:49;3.20;;;1.10;;
28311;SDS011;15572;48.810;9.148;2023-05-10T05:10:45;3.77;;;1.40;;
28311;SDS011;15572;48.810;9.148;2023-05-10T05:15:42;1.50;;;1.40;;
28311;SDS011;15572;48.810;9.148;2023-05-10T05:20:40;3.40;;;1.17;;
28311;SDS011;15572;48.810;9.148;2023-05-10T05:25:36;1.20;;;1.10;;
28311;SDS011;15572;48.810;9.148;2023-05-10T05:30:32;2.97;;;1.23;;
28311;SDS011;15572;48.810;9.148;2023-05-10T05:35:29;1.47;;;1.27;;
28311;SDS011;15572;48.810;9.148;2023-05-10T05:40:27;3.53;;;1.13;;
28311;SDS011;15572;48.810;9.148;2023-05-10T05:45:23;1.50;;;1.40;;
28311;SDS011;15572;48.810;9.148;2023-05-10T05:50:20;1.50;;;1.40;;
28311;SDS011;15572;48.810;9.148;2023-05-10T05:55:16;1.97;;;1.20;;
28311;SDS011;15572;48.810;9.148;2023-05-10T06:00:14;2.80;;;1.30;;
28311;SDS011;15572;48.810;9.148;2023-05-10T06:05:11;2.03;;;1.30;;
28311;SDS011;15572;48.810;9.148;2023-05-10T06:10:09;1.57;;;1.40;;
28311;SDS011;15572;48.810;9.148;2023-05-10T06:15:06;1.50;;;1.20;;
28311;SDS011;15572;48.810;9.148;2023-05-10T06:20:05;2.13;;;1.30;;
28311;SDS011;15572;48.810;9.148;2023-05-10T06:25:03;1.97;;;1.23;;
28311;SDS011;15572;48.810;9.148;2023-05-10T06:30:00;3.13;;;1.57;;
28311;SDS011;15572;48.810;9.148;2023-05-10T06:34:57;3.27;;;1.30;;
28311;SDS011;15572;48.810;9.148;2023-05-10T06:39:55;1.80;;;1.20;;
28311;SDS011;15572;48.810;9.148;2023-05-10T06:44:52;1.53;;;1.27;;
28311;SDS011;15572;48.810;9.148;2023-05-10T06:49:48;2.17;;;1.60;;
28311;SDS011;15572;48.810;9.148;2023-05-10T06:54:45;2.53;;;1.30;;
28311;SDS011;15572;48.810;9.148;2023-05-10T06:59:42;2.73;;;1.50;;
28311;SDS011;15572;48.810;9.148;2023-05-10T07:04:39;2.33;;;1.20;;
28311;SDS011;15572;48.810;9.148;2023-05-10T07:09:35;1.37;;;1.23;;
28311;SDS011;15572;48.810;9.148;2023-05-10T07:14:32;2.47;;;1.00;;
28311;SDS011;15572;48.810;9.148;2023-05-10T07:19:30;3.50;;;1.30;;
28311;SDS011;15572;48.810;9.148;2023-05-10T07:24:27;1.13;;;1.00;;
28311;SDS011;15572;48.810;9.148;2023-05-10T07:29:27;2.20;;;1.40;;
28311;SDS011;15572;48.810;9.148;2023-05-10T07:34:24;1.57;;;1.40;;
28311;SDS011;15572;48.810;9.148;2023-05-10T07:39:22;3.13;;;1.30;;
28311;SDS011;15572;48.810;9.148;2023-05-10T07:44:18;3.30;;;1.40;;
28311;SDS011;15572;48.810;9.148;2023-05-10T07:49:15;2.03;;;1.10;;
28311;SDS011;15572;48.810;9.148;2023-05-10T07:54:11;2.07;;;0.93;;
28311;SDS011;15572;48.810;9.148;2023-05-10T07:59:09;7.13;;;1.23;;
28311;SDS011;15572;48.810;9.148;2023-05-10T08:04:06;2.00;;;1.10;;
28311;SDS011;15572;48.810;9.148;2023-05-10T08:09:03;2.00;;;0.90;;
28311;SDS011;15572;48.810;9.148;2023-05-10T08:14:00;2.03;;;1.00;;
28311;SDS011;15572;48.810;9.148;2023-05-10T08:18:58;1.40;;;0.80;;
28311;SDS011;15572;48.810;9.148;2023-05-10T08:23:54;0.80;;;0.80;;
28311;SDS011;15572;48.810;9.148;2023-05-10T08:28:51;0.80;;;0.80;;
28311;SDS011;15572;48.810;9.148;2023-05-10T08:33:47;0.80;;;0.80;;
28311;SDS011;15572;48.810;9.148;2023-05-10T08:38:49;0.80;;;0.80;;
28311;SDS011;15572;48.810;9.148;2023-05-10T08:43:48;0.87;;;0.87;;
28311;SDS011;15572;48.810;9.148;2023-05-10T08:48:50;0.80;;;0.80;;
28311;SDS011;15572;48.810;9.148;2023-05-10T08:53:58;1.37;;;0.70;;
28311;SDS011;15572;48.810;9.148;2023-05-10T08:58:58;1.60;;;0.90;;
28311;SDS011;15572;48.810;9.148;2023-05-10T09:03:58;1.50;;;0.70;;
28311;SDS011;15572;48.810;9.148;2023-05-10T09:08:55;2.30;;;0.87;;
28311;SDS011;15572;48.810;9.148;2023-05-10T09:13:55;0.70;;;0.70;;
28311;SDS011;15572;48.810;9.148;2023-05-10T09:18:54;0.83;;;0.70;;
28311;SDS011;15572;48.810;9.148;2023-05-10T09:23:53;0.63;;;0.60;;
28311;SDS011;15572;48.810;9.148;2023-05-10T09:28:52;0.80;;;0.70;;
28311;SDS011;15572;48.810;9.148;2023-05-10T09:33:53;1.70;;;0.60;;
28311;SDS011;15572;48.810;9.148;2023-05-10T09:38:51;0.83;;;0.60;;
28311;SDS011;15572;48.810;9.148;2023-05-10T09:43:50;1.13;;;0.53;;
28311;SDS011;15572;48.810;9.148;2023-05-10T09:48:53;1.30;;;0.60;;
28311;SDS011;15572;48.810;9.148;2023-05-10T09:53:52;1.57;;;0.80;;
28311;SDS011;15572;48.810;9.148;2023-05-10T09:59:05;0.67;;;0.60;;
28311;SDS011;15572;48.810;9.148;2023-05-10T10:04:05;3.00;;;0.90;;
28311;SDS011;15572;48.810;9.148;2023-05-10T10:09:02;1.53;;;0.70;;
28311;SDS011;15572;48.810;9.148;2023-05-10T10:13:58;1.03;;;0.60;;
28311;SDS011;15572;48.810;9.148;2023-05-10T10:18:55;4.63;;;1.20;;
28311;SDS011;15572;48.810;9.148;2023-05-10T10:23:53;1.40;;;0.70;;
28311;SDS011;15572;48.810;9.148;2023-05-10T10:28:51;3.27;;;1.30;;
28311;SDS011;15572;48.810;9.148;2023-05-10T10:33:57;2.27;;;1.00;;
28311;SDS011;15572;48.810;9.148;2023-05-10T10:38:59;3.77;;;0.80;;
28311;SDS011;15572;48.810;9.148;2023-05-10T10:49:30;1.77;;;0.80;;
28311;SDS011;15572;48.810;9.148;2023-05-10T10:54:29;1.30;;;0.80;;
28311;SDS011;15572;48.810;9.148;2023-05-10T10:59:28;0.97;;;0.50;;
28311;SDS011;15572;48.810;9.148;2023-05-10T11:04:24;0.30;;;0.30;;
28311;SDS011;15572;48.810;9.148;2023-05-10T11:09:21;0.70;;;0.60;;
28311;SDS011;15572;48.810;9.148;2023-05-10T11:14:22;3.47;;;0.60;;
28311;SDS011;15572;48.810;9.148;2023-05-10T11:19:21;2.63;;;0.73;;
28311;SDS011;15572;48.810;9.148;2023-05-10T11:24:23;2.80;;;0.60;;
28311;SDS011;15572;48.810;9.148;2023-05-10T11:29:24;0.93;;;0.60;;
28311;SDS011;15572;48.810;9.148;2023-05-10T11:34:24;1.57;;;0.70;;
28311;SDS011;15572;48.810;9.148;2023-05-10T11:39:25;1.67;;;0.70;;
28311;SDS011;15572;48.810;9.148;2023-05-10T11:44:22;1.50;;;0.70;;
28311;SDS011;15572;48.810;9.148;2023-05-10T11:49:24;2.10;;;0.70;;
28311;SDS011;15572;48.810;9.148;2023-05-10T11:54:22;2.00;;;0.80;;
28311;SDS011;15572;48.810;9.148;2023-05-10T11:59:18;1.37;;;1.00;;
28311;SDS011;15572;48.810;9.148;2023-05-10T12:04:16;2.23;;;0.90;;
28311;SDS011;15572;48.810;9.148;2023-05-10T12:09:13;1.23;;;0.90;;
28311;SDS011;15572;48.810;9.148;2023-05-10T12:14:10;2.33;;;1.00;;
28311;SDS011;15572;48.810;9.148;2023-05-10T12:19:07;1.80;;;1.10;;
28311;SDS011;15572;48.810;9.148;2023-05-10T12:24:05;2.07;;;1.00;;
28311;SDS011;15572;48.810;9.148;2023-05-10T12:29:14;1.43;;;0.97;;
28311;SDS011;15572;48.810;9.148;2023-05-10T12:34:22;1.57;;;0.93;;
28311;SDS011;15572;48.810;9.148;2023-05-10T12:39:24;3.17;;;1.10;;
28311;SDS011;15572;48.810;9.148;2023-05-10T12:49:44;1.77;;;1.00;;
28311;SDS011;15572;48.810;9.148;2023-05-10T12:54:55;2.73;;;1.10;;
28311;SDS011;15572;48.810;9.148;2023-05-10T13:00:00;2.00;;;0.80;;
28311;SDS011;15572;48.810;9.148;2023-05-10T13:05:00;1.57;;;0.90;;
28311;SDS011;15572;48.810;9.148;2023-05-10T13:10:02;2.53;;;1.13;;
28311;SDS011;15572;48.810;9.148;2023-05-10T13:14:59;1.97;;;0.90;;
28311;SDS011;15572;48.810;9.148;2023-05-10T13:21:23;2.33;;;1.00;;
28311;SDS011;15572;48.810;9.148;2023-05-10T13:31:16;1.00;;;0.90;;
28311;SDS011;15572;48.810;9.148;2023-05-10T13:36:13;1.60;;;1.00;;
28311;SDS011;15572;48.810;9.148;2023-05-10T13:41:09;3.53;;;1.00;;
28311;SDS011;15572;48.810;9.148;2023-05-10T13:46:06;2.07;;;1.00;;
28311;SDS011;15572;48.810;9.148;2023-05-10T13:51:04;3.03;;;1.37;;
28311;SDS011;15572;48.810;9.148;2023-05-10T13:56:00;3.33;;;1.63;;
28311;SDS011;15572;48.810;9.148;2023-05-10T14:00:57;1.57;;;0.93;;
28311;SDS011;15572;48.810;9.148;2023-05-10T14:05:54;2.20;;;1.13;;
28311;SDS011;15572;48.810;9.148;2023-05-10T14:10:52;1.80;;;1.00;;
28311;SDS011;15572;48.810;9.148;2023-05-10T14:15:48;1.80;;;0.90;;
28311;SDS011;15572;48.810;9.148;2023-05-10T14:20:45;0.90;;;0.70;;
28311;SDS011;15572;48.810;9.148;2023-05-10T14:25:41;0.90;;;0.80;;
28311;SDS011;15572;48.810;9.148;2023-05-10T14:30:39;1.87;;;0.90;;
28311;SDS011;15572;48.810;9.148;2023-05-10T14:35:36;1.77;;;1.00;;
28311;SDS011;15572;48.810;9.148;2023-05-10T14:40:32;2.23;;;0.80;;
28311;SDS011;15572;48.810;9.148;2023-05-10T14:45:30;1.90;;;1.13;;
28311;SDS011;15572;48.810;9.148;2023-05-10T14:50:28;2.03;;;0.87;;
28311;SDS011;15572;48.810;9.148;2023-05-10T14:55:24;1.40;;;1.30;;
28311;SDS011;15572;48.810;9.148;2023-05-10T15:00:21;1.30;;;0.90;;
28311;SDS011;15572;48.810;9.148;2023-05-10T15:05:18;1.40;;;0.80;;
28311;SDS011;15572;48.810;9.148;2023-05-10T15:10:15;5.40;;;1.10;;
28311;SDS011;15572;48.810;9.148;2023-05-10T15:15:12;1.93;;;1.17;;
28311;SDS011;15572;48.810;9.148;2023-05-10T15:20:09;1.90;;;1.10;;
28311;SDS011;15572;48.810;9.148;2023-05-10T15:25:06;1.80;;;0.93;;
28311;SDS011;15572;48.810;9.148;2023-05-10T15:30:05;3.90;;;0.90;;
28311;SDS011;15572;48.810;9.148;2023-05-10T15:35:02;2.97;;;0.97;;
28311;SDS011;15572;48.810;9.148;2023-05-10T15:39:59;0.90;;;0.90;;
28311;SDS011;15572;48.810;9.148;2023-05-10T15:44:58;1.07;;;0.90;;
28311;SDS011;15572;48.810;9.148;2023-05-10T15:49:56;3.37;;;1.30;;
28311;SDS011;15572;48.810;9.148;2023-05-10T15:54:53;2.13;;;0.90;;
28311;SDS011;15572;48.810;9.148;2023-05-10T15:59:49;2.47;;;0.90;;
28311;SDS011;15572;48.810;9.148;2023-05-10T16:04:46;1.67;;;0.80;;
28311;SDS011;15572;48.810;9.148;2023-05-10T16:09:44;0.67;;;0.67;;
28311;SDS011;15572;48.810;9.148;2023-05-10T16:14:40;2.43;;;1.00;;
28311;SDS011;15572;48.810;9.148;2023-05-10T16:19:37;2.50;;;0.90;;
28311;SDS011;15572;48.810;9.148;2023-05-10T16:24:33;1.07;;;0.80;;
28311;SDS011;15572;48.810;9.148;2023-05-10T16:29:32;1.73;;;1.00;;
28311;SDS011;15572;48.810;9.148;2023-05-10T16:34:28;1.17;;;0.70;;
28311;SDS011;15572;48.810;9.148;2023-05-10T16:39:24;2.13;;;0.80;;
28311;SDS011;15572;48.810;9.148;2023-05-10T16:44:21;0.97;;;0.70;;
28311;SDS011;15572;48.810;9.148;2023-05-10T16:49:19;2.00;;;0.80;;
28311;SDS011;15572;48.810;9.148;2023-05-10T16:54:15;0.80;;;0.80;;
28311;SDS011;15572;48.810;9.148;2023-05-10T16:59:12;2.10;;;0.70;;
28311;SDS011;15572;48.810;9.148;2023-05-10T17:04:09;2.40;;;0.70;;
28311;SDS011;15572;48.810;9.148;2023-05-10T17:09:06;1.23;;;0.70;;
28311;SDS011;15572;48.810;9.148;2023-05-10T17:14:03;2.00;;;0.70;;
28311;SDS011;15572;48.810;9.148;2023-05-10T17:18:59;2.77;;;0.90;;
28311;SDS011;15572;48.810;9.148;2023-05-10T17:23:56;1.07;;;0.60;;
28311;SDS011;15572;48.810;9.148;2023-05-10T17:28:54;1.67;;;0.80;;
28311;SDS011;15572;48.810;9.148;2023-05-10T17:33:50;2.30;;;1.37;;
28311;SDS011;15572;48.810;9.148;2023-05-10T17:38:47;2.97;;;1.37;;
28311;SDS011;15572;48.810;9.148;2023-05-10T17:43:43;1.10;;;1.00;;
28311;SDS011;15572;48.810;9.148;2023-05-10T17:48:41;1.20;;;0.90;;
28311;SDS011;15572;48.810;9.148;2023-05-10T17:53:38;3.57;;;1.80;;
28311;SDS011;15572;48.810;9.148;2023-05-10T17:58:34;1.57;;;1.20;;
28311;SDS011;15572;48.810;9.148;2023-05-10T18:03:34;1.60;;;1.00;;
28311;SDS011;15572;48.810;9.148;2023-05-10T18:08:32;1.33;;;1.00;;
28311;SDS011;15572;48.810;9.148;2023-05-10T18:13:28;2.30;;;1.00;;
28311;SDS011;15572;48.810;9.148;2023-05-10T18:18:24;1.27;;;0.93;;
28311;SDS011;15572;48.810;9.148;2023-05-10T18:23:21;1.07;;;0.97;;
28311;SDS011;15572;48.810;9.148;2023-05-10T18:28:19;0.90;;;0.80;;
28311;SDS011;15572;48.810;9.148;2023-05-10T18:33:16;1.43;;;0.90;;
28311;SDS011;15572;48.810;9.148;2023-05-10T18:38:12;1.60;;;0.73;;
28311;SDS011;15572;48.810;9.148;2023-05-10T18:43:09;0.73;;;0.70;;
28311;SDS011;15572;48.810;9.148;2023-05-10T18:48:06;1.10;;;0.90;;
28311;SDS011;15572;48.810;9.148;2023-05-10T18:53:03;1.47;;;0.80;;
28311;SDS011;15572;48.810;9.148;2023-05-10T18:57:59;1.93;;;0.90;;
28311;SDS011;15572;48.810;9.148;2023-05-10T19:02:56;1.07;;;0.70;;
28311;SDS011;15572;48.810;9.148;2023-05-10T19:07:54;3.03;;;0.90;;
28311;SDS011;15572;48.810;9.148;2023-05-10T19:12:50;0.87;;;0.87;;
28311;SDS011;15572;48.810;9.148;2023-05-10T19:17:47;3.03;;;0.90;;
28311;SDS011;15572;48.810;9.148;2023-05-10T19:22:43;1.57;;;1.00;;
28311;SDS011;15572;48.810;9.148;2023-05-10T19:27:41;2.90;;;0.93;;
28311;SDS011;15572;48.810;9.148;2023-05-10T19:32:38;2.83;;;1.00;;
28311;SDS011;15572;48.810;9.148;2023-05-10T19:37:37;2.30;;;1.00;;
28311;SDS011;15572;48.810;9.148;2023-05-10T19:42:34;2.20;;;0.97;;
28311;SDS011;15572;48.810;9.148;2023-05-10T19:47:32;1.00;;;0.90;;
28311;SDS011;15572;48.810;9.148;2023-05-10T19:52:29;4.07;;;1.40;;
28311;SDS011;15572;48.810;9.148;2023-05-10T19:57:26;2.43;;;1.30;;
28311;SDS011;15572;48.810;9.148;2023-05-10T20:02:22;1.60;;;1.50;;
28311;SDS011;15572;48.810;9.148;2023-05-10T20:07:20;1.17;;;1.07;;
28311;SDS011;15572;48.810;9.148;2023-05-10T20:12:17;2.33;;;1.07;;
28311;SDS011;15572;48.810;9.148;2023-05-10T20:17:13;5.20;;;1.10;;
28311;SDS011;15572;48.810;9.148;2023-05-10T20:22:10;1.43;;;0.90;;
28311;SDS011;15572;48.810;9.148;2023-05-10T20:27:08;2.17;;;0.93;;
28311;SDS011;15572;48.810;9.148;2023-05-10T20:32:04;1.33;;;0.97;;
28311;SDS011;15572;48.810;9.148;2023-05-10T20:37:01;0.83;;;0.83;;
28311;SDS011;15572;48.810;9.148;2023-05-10T20:41:57;1.50;;;0.70;;
28311;SDS011;15572;48.810;9.148;2023-05-10T20:46:55;0.73;;;0.73;;
28311;SDS011;15572;48.810;9.148;2023-05-10T20:51:52;1.33;;;0.80;;
28311;SDS011;15572;48.810;9.148;2023-05-10T20:56:48;0.97;;;0.77;;
28311;SDS011;15572;48.810;9.148;2023-05-10T21:01:45;1.83;;;0.87;;
28311;SDS011;15572;48.810;9.148;2023-05-10T21:06:43;0.80;;;0.80;;
28311;SDS011;15572;48.810;9.148;2023-05-10T21:11:40;2.43;;;0.80;;
28311;SDS011;15572;48.810;9.148;2023-05-10T21:16:36;1.80;;;0.77;;
28311;SDS011;15572;48.810;9.148;2023-05-10T21:21:33;0.80;;;0.80;;
28311;SDS011;15572;48.810;9.148;2023-05-10T21:26:31;1.07;;;0.77;;
28311;SDS011;15572;48.810;9.148;2023-05-10T21:31:27;1.70;;;0.87;;
28311;SDS011;15572;48.810;9.148;2023-05-10T21:36:24;1.70;;;0.60;;
28311;SDS011;15572;48.810;9.148;2023-05-10T21:41:20;1.37;;;0.70;;
28311;SDS011;15572;48.810;9.148;2023-05-10T21:46:18;1.00;;;0.90;;
28311;SDS011;15572;48.810;9.148;2023-05-10T21:51:15;1.10;;;0.90;;
28311;SDS011;15572;48.810;9.148;2023-05-10T21:56:11;1.23;;;0.77;;
28311;SDS011;15572;48.810;9.148;2023-05-10T22:01:08;0.80;;;0.80;;
28311;SDS011;15572;48.810;9.148;2023-05-10T22:06:06;0.70;;;0.70;;
28311;SDS011;15572;48.810;9.148;2023-05-10T22:11:03;1.10;;;1.00;;
28311;SDS011;15572;48.810;9.148;2023-05-10T22:15:59;3.60;;;0.80;;
28311;SDS011;15572;48.810;9.148;2023-05-10T22:20:56;1.67;;;0.70;;
28311;SDS011;15572;48.810;9.148;2023-05-10T22:25:53;0.77;;;0.77;;
28311;SDS011;15572;48.810;9.148;2023-05-10T22:30:55;0.90;;;0.90;;
28311;SDS011;15572;48.810;9.148;2023-05-10T22:35:51;0.80;;;0.80;;
28311;SDS011;15572;48.810;9.148;2023-05-10T22:40:47;1.80;;;0.67;;
28311;SDS011;15572;48.810;9.148;2023-05-10T22:45:45;1.10;;;0.70;;
28311;SDS011;15572;48.810;9.148;2023-05-10T22:50:42;2.63;;;1.00;;
28311;SDS011;15572;48.810;9.148;2023-05-10T22:55:38;1.00;;;0.80;;
28311;SDS011;15572;48.810;9.148;2023-05-10T23:00:35;1.33;;;0.80;;
28311;SDS011;15572;48.810;9.148;2023-05-10T23:05:33;2.23;;;0.90;;
28311;SDS011;15572;48.810;9.148;2023-05-10T23:10:29;0.83;;;0.80;;
28311;SDS011;15572;48.810;9.148;2023-05-10T23:15:26;1.13;;;0.80;;
28311;SDS011;15572;48.810;9.148;2023-05-10T23:20:22;2.03;;;1.13;;
28311;SDS011;15572;48.810;9.148;2023-05-10T23:25:20;1.67;;;1.10;;
28311;SDS011;15572;48.810;9.148;2023-05-10T23:30:16;2.30;;;0.90;;
28311;SDS011;15572;48.810;9.148;2023-05-10T23:35:13;1.83;;;0.93;;
28311;SDS011;15572;48.810;9.148;2023-05-10T23:40:10;0.70;;;0.70;;
28311;SDS011;15572;48.810;9.148;2023-05-10T23:45:09;2.63;;;0.80;;
28311;SDS011;15572;48.810;9.148;2023-05-10T23:50:06;0.83;;;0.70;;
28311;SDS011;15572;48.810;9.148;2023-05-10T23:55:04;2.67;;;1.00;;
